createdAt,value
2019-03-04T00:04:56.034Z,999.90
2019-03-04T00:10:00.027Z,999.90
2019-03-04T00:15:03.994Z,999.90
2019-03-04T00:20:07.602Z,999.90
2019-03-04T00:25:10.883Z,999.90
2019-03-04T00:30:14.756Z,999.90
2019-03-04T00:35:18.560Z,999.90
2019-03-04T00:40:22.018Z,999.90
2019-03-04T00:45:25.708Z,999.90
2019-03-04T00:50:29.491Z,999.90
2019-03-04T00:55:33.276Z,999.90
2019-03-04T01:00:37.162Z,999.90
2019-03-04T01:05:40.792Z,979.40
2019-03-04T01:10:44.215Z,999.90
2019-03-04T01:15:47.883Z,952.73
2019-03-04T01:20:52.028Z,941.40
2019-03-04T01:25:55.315Z,922.83
2019-03-04T01:30:58.723Z,999.90
2019-03-04T01:36:02.637Z,985.80
2019-03-04T01:41:06.329Z,999.90
2019-03-04T01:46:10.134Z,999.90
2019-03-04T01:51:13.506Z,996.77
2019-03-04T01:56:16.806Z,970.47
2019-03-04T02:01:20.719Z,999.90
2019-03-04T02:06:24.268Z,999.90
2019-03-04T02:11:28.676Z,999.90
2019-03-04T02:16:32.175Z,978.53
2019-03-04T02:21:35.969Z,999.90
2019-03-04T02:26:39.774Z,970.50
2019-03-04T02:31:43.547Z,970.47
2019-03-04T02:36:46.952Z,999.90
2019-03-04T02:41:50.905Z,999.90
2019-03-04T02:46:54.863Z,999.90
2019-03-04T02:51:58.396Z,999.90
2019-03-04T02:57:02.170Z,998.53
2019-03-04T03:02:07.292Z,999.90
2019-03-04T03:07:10.595Z,999.90
2019-03-04T03:12:14.427Z,999.90
2019-03-04T03:17:18.127Z,999.90
2019-03-04T03:22:21.409Z,999.90
2019-03-04T03:27:24.806Z,999.90
2019-03-04T03:32:28.573Z,999.90
2019-03-04T03:37:32.329Z,944.37
2019-03-04T03:42:36.029Z,999.90
2019-03-04T03:47:39.434Z,999.90
2019-03-04T03:52:42.722Z,999.90
2019-03-04T03:57:45.994Z,999.90
2019-03-04T04:02:50.115Z,999.90
2019-03-04T04:07:53.891Z,999.90
2019-03-04T04:12:57.336Z,999.90
2019-03-04T04:18:01.338Z,999.90
2019-03-04T04:23:05.112Z,999.73
2019-03-04T04:28:10.035Z,999.90
2019-03-04T04:33:13.798Z,999.90
2019-03-04T04:38:17.844Z,999.90
2019-03-04T04:43:21.600Z,999.90
2019-03-04T04:48:25.791Z,992.23
2019-03-04T04:53:29.074Z,999.90
2019-03-04T04:58:32.456Z,993.27
2019-03-04T05:03:36.249Z,999.90
2019-03-04T05:08:40.313Z,990.63
2019-03-04T05:13:44.229Z,999.90
2019-03-04T05:18:48.827Z,999.90
2019-03-04T05:23:52.510Z,999.90
2019-03-04T05:28:56.284Z,999.90
2019-03-04T05:34:02.967Z,999.90
2019-03-04T05:39:08.973Z,999.90
2019-03-04T05:44:13.072Z,999.90
2019-03-04T05:49:16.901Z,999.90
2019-03-04T05:54:20.213Z,999.90
2019-03-04T05:59:23.698Z,999.90
2019-03-04T06:04:27.710Z,999.90
2019-03-04T06:09:31.662Z,999.90
2019-03-04T06:14:35.586Z,999.90
2019-03-04T06:19:39.491Z,999.90
2019-03-04T06:24:42.761Z,999.90
2019-03-04T06:29:46.118Z,999.90
2019-03-04T06:34:50.054Z,999.90
2019-03-04T06:39:53.421Z,999.90
2019-03-04T06:44:57.186Z,999.90
2019-03-04T06:50:00.935Z,999.10
2019-03-04T06:55:17.246Z,999.90
2019-03-04T07:00:49.096Z,999.90
2019-03-04T07:05:52.970Z,999.90
2019-03-04T07:10:56.336Z,999.90
2019-03-04T07:16:00.481Z,999.90
2019-03-04T07:21:03.866Z,999.90
2019-03-04T07:26:07.561Z,999.90
2019-03-04T07:31:11.021Z,999.90
2019-03-04T07:36:14.374Z,999.90
2019-03-04T07:41:17.842Z,999.90
2019-03-04T07:46:21.433Z,999.90
2019-03-04T07:51:25.323Z,999.90
2019-03-04T07:56:28.939Z,999.90
2019-03-04T08:01:32.466Z,999.90
2019-03-04T08:06:36.293Z,999.90
2019-03-04T08:12:01.745Z,999.90
2019-03-04T08:17:05.217Z,999.90
2019-03-04T08:22:09.682Z,999.90
2019-03-04T08:27:13.092Z,999.90
2019-03-04T08:32:16.796Z,999.90
2019-03-04T08:37:20.263Z,999.90
2019-03-04T08:42:23.704Z,999.90
2019-03-04T08:47:27.471Z,999.90
2019-03-04T08:52:31.283Z,999.90
2019-03-04T08:57:34.621Z,999.90
2019-03-04T09:02:38.624Z,999.90
2019-03-04T09:07:42.525Z,999.90
2019-03-04T09:12:46.288Z,999.90
2019-03-04T09:17:50.113Z,999.90
2019-03-04T09:22:54.506Z,999.90
2019-03-04T09:27:58.558Z,999.90
2019-03-04T09:33:02.639Z,999.90
2019-03-04T09:38:06.033Z,999.90
2019-03-04T09:43:09.841Z,999.90
2019-03-04T09:48:13.646Z,999.90
2019-03-04T09:53:17.418Z,999.90
2019-03-04T09:58:21.462Z,999.90
2019-03-04T10:03:44.532Z,999.90
2019-03-04T10:08:56.241Z,963.27
2019-03-04T10:14:22.090Z,989.90
2019-03-04T10:20:17.515Z,970.50
2019-03-04T10:25:34.562Z,854.67
2019-03-04T10:31:16.077Z,867.27
2019-03-04T10:36:22.930Z,904.10
2019-03-04T10:41:35.293Z,800.07
2019-03-04T10:46:55.329Z,653.70
2019-03-04T10:51:59.798Z,708.27
2019-03-04T10:57:03.429Z,910.57
2019-03-04T11:02:07.211Z,690.33
2019-03-04T11:07:11.339Z,662.40
2019-03-04T11:12:15.398Z,611.40
2019-03-04T11:17:19.474Z,332.20
2019-03-04T11:22:23.049Z,401.47
2019-03-04T11:27:26.661Z,817.70
2019-03-04T11:32:29.974Z,850.77
2019-03-04T11:37:33.257Z,842.33
2019-03-04T11:42:36.594Z,999.90
2019-03-04T11:47:40.089Z,999.90
2019-03-04T11:52:43.475Z,994.00
2019-03-04T11:57:46.874Z,999.90
2019-03-04T12:02:50.611Z,999.90
2019-03-04T12:07:54.630Z,957.00
2019-03-04T12:12:58.594Z,999.90
2019-03-04T12:18:02.307Z,912.87
2019-03-04T12:23:05.681Z,999.90
2019-03-04T12:28:09.461Z,969.50
2019-03-04T12:33:13.369Z,974.70
2019-03-04T12:38:17.093Z,979.50
2019-03-04T12:43:20.474Z,983.37
2019-03-04T12:48:23.776Z,999.90
2019-03-04T12:53:36.880Z,999.90
2019-03-04T12:58:32.142Z,999.90
2019-03-04T13:03:35.509Z,999.90
2019-03-04T13:08:38.811Z,999.90
2019-03-04T13:13:42.659Z,999.90
2019-03-04T13:18:46.582Z,999.90
2019-03-04T13:23:50.490Z,981.63
2019-03-04T13:28:53.903Z,941.77
2019-03-04T13:33:57.674Z,931.27
2019-03-04T13:39:01.011Z,699.37
2019-03-04T13:44:04.881Z,560.33
2019-03-04T13:49:08.172Z,412.47
2019-03-04T13:54:11.869Z,548.43
2019-03-04T13:59:15.559Z,893.67
2019-03-04T14:04:19.114Z,999.90
2019-03-04T14:09:22.973Z,999.90
2019-03-04T14:14:26.906Z,564.53
2019-03-04T14:19:30.442Z,999.90
2019-03-04T14:24:34.282Z,877.97
2019-03-04T14:29:38.111Z,587.30
2019-03-04T14:34:41.882Z,829.77
2019-03-04T14:39:45.598Z,719.30
2019-03-04T14:44:49.433Z,999.90
2019-03-04T14:49:53.296Z,843.57
2019-03-04T14:54:56.966Z,906.53
2019-03-04T15:00:00.665Z,933.00
2019-03-04T15:05:05.125Z,882.27
2019-03-04T15:10:09.034Z,761.17
2019-03-04T15:15:13.581Z,937.23
2019-03-04T15:20:19.446Z,947.57
2019-03-04T15:25:28.704Z,924.00
2019-03-04T15:30:32.477Z,999.90
2019-03-04T15:35:36.818Z,907.77
2019-03-04T15:40:40.687Z,802.37
2019-03-04T15:45:46.940Z,999.90
2019-03-04T15:50:50.777Z,964.30
2019-03-04T15:55:54.814Z,765.13
2019-03-04T16:00:58.702Z,999.90
2019-03-04T16:06:01.994Z,975.60
2019-03-04T16:11:06.160Z,974.73
2019-03-04T16:16:10.007Z,972.10
2019-03-04T16:21:13.497Z,999.90
2019-03-04T16:26:17.014Z,960.13
2019-03-04T16:31:20.301Z,996.47
2019-03-04T16:36:25.460Z,901.90
2019-03-04T16:41:29.269Z,843.17
2019-03-04T16:46:33.061Z,999.90
2019-03-04T16:51:56.059Z,966.73
2019-03-04T16:56:59.351Z,952.30
2019-03-04T17:02:04.203Z,911.03
2019-03-04T17:07:07.678Z,897.50
2019-03-04T17:12:11.902Z,999.90
2019-03-04T17:17:16.062Z,886.17
2019-03-04T17:22:27.821Z,906.67
2019-03-04T17:27:32.080Z,803.43
2019-03-04T17:32:35.938Z,924.93
2019-03-04T17:37:39.659Z,920.70
2019-03-04T17:42:43.822Z,719.67
2019-03-04T17:47:49.711Z,754.00
2019-03-04T17:52:53.578Z,786.30
2019-03-04T17:57:59.352Z,754.87
2019-03-04T18:03:03.155Z,788.70
2019-03-04T18:08:08.991Z,708.97
2019-03-04T18:13:13.638Z,804.83
2019-03-04T18:18:17.426Z,914.67
2019-03-04T18:23:22.699Z,707.80
2019-03-04T18:29:12.233Z,804.67
2019-03-04T18:35:08.050Z,675.37
2019-03-04T18:40:51.851Z,901.90
2019-03-04T18:46:32.319Z,757.20
2019-03-04T18:51:37.878Z,589.23
2019-03-04T18:56:41.988Z,876.77
2019-03-04T19:01:49.000Z,751.40
2019-03-04T19:06:52.478Z,659.17
2019-03-04T19:11:56.857Z,641.27
2019-03-04T19:17:00.573Z,971.87
2019-03-04T19:22:03.933Z,902.63
2019-03-04T19:27:07.234Z,879.43
2019-03-04T19:32:11.267Z,627.70
2019-03-04T19:37:15.504Z,746.30
2019-03-04T19:42:19.397Z,700.73
2019-03-04T19:47:22.759Z,968.27
2019-03-04T19:52:26.176Z,943.43
2019-03-04T19:57:29.930Z,769.17
2019-03-04T20:02:33.740Z,740.43
2019-03-04T20:07:38.384Z,749.10
2019-03-04T20:12:42.286Z,893.70
2019-03-04T20:17:49.162Z,793.83
2019-03-04T20:22:52.520Z,777.50
2019-03-04T20:27:56.306Z,700.47
2019-03-04T20:33:00.054Z,844.30
2019-03-04T20:38:04.002Z,595.80
2019-03-04T20:43:07.971Z,674.50
2019-03-04T20:48:11.800Z,638.07
2019-03-04T20:53:15.113Z,840.93
2019-03-04T20:58:18.461Z,705.47
2019-03-04T21:03:21.970Z,712.90
2019-03-04T21:08:26.086Z,767.00
2019-03-04T21:13:35.097Z,801.10
2019-03-04T21:18:35.839Z,787.80
2019-03-04T21:23:40.481Z,849.30
2019-03-04T21:28:53.761Z,718.83
2019-03-04T21:34:23.899Z,767.73
2019-03-04T21:39:32.013Z,689.40
2019-03-04T21:45:01.819Z,664.47
2019-03-04T21:50:08.090Z,713.60
2019-03-04T21:55:20.603Z,758.03
2019-03-04T22:00:30.115Z,654.23
2019-03-04T22:05:33.847Z,581.03
2019-03-04T22:10:37.259Z,920.53
2019-03-04T22:15:41.230Z,628.37
2019-03-04T22:20:45.314Z,643.10
2019-03-04T22:25:48.594Z,708.50
2019-03-04T22:30:51.940Z,746.27
2019-03-04T22:35:55.746Z,733.97
2019-03-04T22:40:59.705Z,678.40
2019-03-04T22:46:04.050Z,890.70
2019-03-04T22:51:08.247Z,746.00
2019-03-04T22:56:12.171Z,703.47
2019-03-04T23:01:50.351Z,728.43
2019-03-04T23:06:58.373Z,790.90
2019-03-04T23:12:13.669Z,779.80
2019-03-04T23:17:17.437Z,692.10
2019-03-04T23:22:20.764Z,699.13
2019-03-04T23:27:24.482Z,776.07
2019-03-04T23:32:28.257Z,876.53
2019-03-04T23:37:31.837Z,648.10
2019-03-04T23:42:35.202Z,849.73
2019-03-04T23:47:39.018Z,752.37
2019-03-04T23:52:42.353Z,736.30
2019-03-04T23:57:47.069Z,745.93
